This is the latest recevied weather packets stored in our database for station/object KB2UHF-8. If no packets are shown the sender has not sent any weather packets the latest 10 day(s).
| Time | Temp. | Humidity | Pressure | Rain* | Wind** | Luminosity | Snow |
|---|---|---|---|---|---|---|---|
| 1777918516 | 23.33° C | 36% | 997.4 hPa | 0 mm | - | 943 W/m² | - |
| 1777916116 | 23.33° C | 34% | 997.3 hPa | 0 mm | - | 734 W/m² | - |
| 1777905916 | 18.89° C | 42% | 998.6 hPa | 0 mm | - | 586 W/m² | - |
| 1777905316 | 18.89° C | 43% | 998.8 hPa | 0 mm | - | 574 W/m² | - |
| 1777904116 | 17.78° C | 45% | 999 hPa | 0 mm | - | 518 W/m² | - |
| 1777887315 | 10° C | 60% | 1001.6 hPa | 0 mm | - | 0 W/m² | - |
| 1777886756 | 10° C | 60% | 1001.8 hPa | 0 mm | - | 0 W/m² | - |
| 1777886115 | 10° C | 60% | 1001.7 hPa | 0 mm | - | 0 W/m² | - |
| 1777885515 | 10° C | 60% | 1001.8 hPa | 0 mm | - | 0 W/m² | - |
| 1777880717 | 10° C | 60% | 1002.6 hPa | 0 mm | - | 0 W/m² | - |
| 1777880117 | 10° C | 60% | 1002.8 hPa | 0 mm | - | 0 W/m² | - |
| 1777879517 | 10° C | 60% | 1002.8 hPa | 0 mm | - | 0 W/m² | - |
| 1777878317 | 10.56° C | 57% | 1003.2 hPa | 0 mm | - | 0 W/m² | - |
| 1777875317 | 11.67° C | 52% | 1003.8 hPa | 0 mm | - | 0 W/m² | - |
| 1777872937 | 12.22° C | 52% | 1004.3 hPa | 0 mm | - | 0 W/m² | - |
| 1777872317 | 12.78° C | 51% | 1004.4 hPa | 0 mm | - | 0 W/m² | - |
| 1777871717 | 12.78° C | 51% | 1004.5 hPa | 0 mm | - | 0 W/m² | - |
| 1777865116 | 14.44° C | 46% | 1005.4 hPa | 0 mm | - | 0 W/m² | - |
| 1777864516 | 14.44° C | 46% | 1005.5 hPa | 0 mm | - | 0 W/m² | - |
| 1777863316 | 15° C | 44% | 1005.5 hPa | 0 mm | - | 0 W/m² | - |
| 1777860336 | 16.67° C | 40% | 1005.2 hPa | 0 mm | - | 0 W/m² | - |
| 1777855515 | 19.44° C | 34% | 1004.8 hPa | 0 mm | - | 20 W/m² | - |
| 1777854315 | 20.56° C | 36% | 1004.9 hPa | 0 mm | - | 46 W/m² | - |
| 1777851355 | 21.11° C | 31% | 1004.7 hPa | 0 mm | - | 210 W/m² | - |
| 1777849557 | 21.67° C | 32% | 1004.6 hPa | 0 mm | - | 308 W/m² | - |
* Rain latest hour (hover to see other rain measurements)
** Current wind speed in m/s (hover to see current wind gust speed)